createdAt,value
2018-07-29T00:11:01.130Z,71.29
2018-07-29T00:13:30.301Z,71.71
2018-07-29T00:15:59.369Z,71.96
2018-07-29T00:18:28.473Z,71.60
2018-07-29T00:20:57.783Z,71.81
2018-07-29T00:23:26.861Z,71.51
2018-07-29T00:25:56.187Z,71.91
2018-07-29T00:28:25.293Z,71.63
2018-07-29T00:30:54.373Z,71.98
2018-07-29T00:33:23.468Z,71.96
2018-07-29T00:35:52.725Z,72.57
2018-07-29T00:38:22.255Z,72.14
2018-07-29T00:40:51.631Z,72.70
2018-07-29T00:43:20.857Z,71.86
2018-07-29T00:45:49.975Z,71.95
2018-07-29T00:48:19.034Z,72.86
2018-07-29T00:50:48.177Z,72.45
2018-07-29T00:53:17.649Z,72.59
2018-07-29T00:55:47.031Z,72.92
2018-07-29T00:58:16.109Z,72.14
2018-07-29T01:00:45.381Z,72.67
2018-07-29T01:03:14.469Z,72.67
2018-07-29T01:05:43.877Z,72.49
2018-07-29T01:08:12.995Z,72.95
2018-07-29T01:10:42.569Z,73.15
2018-07-29T01:13:12.066Z,73.18
2018-07-29T01:15:41.483Z,72.83
2018-07-29T01:18:10.532Z,72.59
2018-07-29T01:20:41.460Z,72.45
2018-07-29T01:23:10.545Z,72.87
2018-07-29T01:25:39.706Z,73.20
2018-07-29T01:31:08.533Z,73.19
2018-07-29T01:33:37.579Z,72.70
2018-07-29T01:36:08.291Z,73.22
2018-07-29T01:38:38.717Z,74.29
2018-07-29T01:41:08.126Z,74.86
2018-07-29T01:43:37.811Z,75.98
2018-07-29T01:46:07.805Z,76.62
2018-07-29T01:48:37.613Z,76.58
2018-07-29T01:51:08.519Z,77.68
2018-07-29T01:53:37.794Z,76.16
2018-07-29T01:56:08.255Z,77.30
2018-07-29T01:58:37.651Z,77.14
2018-07-29T02:01:07.914Z,76.60
2018-07-29T02:03:37.875Z,77.54
2018-07-29T02:06:08.233Z,78.17
2018-07-29T02:08:38.105Z,77.22
2018-07-29T02:11:07.933Z,76.38
2018-07-29T02:13:37.991Z,76.54
2018-07-29T02:16:08.145Z,75.99
2018-07-29T02:18:38.179Z,76.13
2018-07-29T02:21:07.915Z,76.21
2018-07-29T02:23:38.325Z,75.34
2018-07-29T02:26:08.351Z,75.13
2018-07-29T02:28:38.253Z,75.65
2018-07-29T02:31:08.161Z,74.56
2018-07-29T02:33:38.513Z,75.11
2018-07-29T02:36:10.842Z,75.44
2018-07-29T02:38:39.941Z,75.79
2018-07-29T02:41:09.042Z,75.21
2018-07-29T02:43:38.213Z,75.24
2018-07-29T02:46:08.101Z,75.23
2018-07-29T02:48:38.195Z,76.32
2018-07-29T02:51:08.371Z,75.33
2018-07-29T02:53:38.146Z,75.39
2018-07-29T02:56:08.221Z,75.04
2018-07-29T02:58:38.273Z,74.51
2018-07-29T03:20:27.503Z,74.31
2018-07-29T03:22:56.696Z,75.13
2018-07-29T03:25:25.778Z,74.98
2018-07-29T03:27:54.836Z,75.20
2018-07-29T03:30:23.892Z,74.28
2018-07-29T03:32:52.964Z,74.57
2018-07-29T03:35:22.042Z,75.13
2018-07-29T03:37:51.104Z,75.44
2018-07-29T03:40:20.202Z,75.93
2018-07-29T03:42:49.293Z,75.49
2018-07-29T03:45:18.305Z,75.45
2018-07-29T03:47:47.358Z,74.52
2018-07-29T03:50:16.413Z,75.26
2018-07-29T03:52:45.640Z,75.21
2018-07-29T03:55:14.746Z,74.86
2018-07-29T03:57:43.798Z,76.00
2018-07-29T04:00:12.893Z,75.62
2018-07-29T04:02:41.940Z,75.25
2018-07-29T04:05:10.974Z,75.70
2018-07-29T04:07:42.850Z,74.88
2018-07-29T04:10:12.379Z,74.85
2018-07-29T04:12:41.438Z,75.83
2018-07-29T04:15:10.516Z,75.95
2018-07-29T04:17:39.550Z,75.26
2018-07-29T04:20:09.395Z,75.17
2018-07-29T04:22:39.134Z,75.81
2018-07-29T04:25:09.212Z,75.16
2018-07-29T04:27:39.120Z,76.08
2018-07-29T04:30:08.468Z,75.69
2018-07-29T04:32:37.552Z,76.04
2018-07-29T04:35:06.612Z,76.09
2018-07-29T04:37:35.702Z,76.10
2018-07-29T04:40:04.790Z,76.44
2018-07-29T04:42:33.885Z,74.81
2018-07-29T04:45:02.898Z,76.74
2018-07-29T04:47:32.126Z,75.26
2018-07-29T04:50:01.630Z,75.29
2018-07-29T04:52:31.143Z,75.22
2018-07-29T04:55:00.257Z,75.81
2018-07-29T04:57:30.972Z,76.35
2018-07-29T05:00:00.460Z,75.76
2018-07-29T05:02:29.994Z,76.85
2018-07-29T05:04:59.070Z,76.60
2018-07-29T05:07:28.170Z,77.37
2018-07-29T05:09:58.508Z,77.02
2018-07-29T05:12:27.616Z,76.68
2018-07-29T05:14:56.710Z,77.44
2018-07-29T05:17:26.075Z,76.80
2018-07-29T05:19:55.115Z,76.62
2018-07-29T05:22:24.373Z,77.10
2018-07-29T05:24:53.971Z,76.62
2018-07-29T05:27:23.418Z,75.95
2018-07-29T05:29:52.905Z,75.37
2018-07-29T05:32:22.075Z,74.69
2018-07-29T05:34:51.145Z,76.02
2018-07-29T05:37:20.193Z,74.25
2018-07-29T05:39:49.287Z,75.32
2018-07-29T05:42:18.821Z,75.67
2018-07-29T05:44:47.848Z,76.22
2018-07-29T05:47:16.919Z,75.28
2018-07-29T05:49:45.987Z,75.24
2018-07-29T05:52:15.118Z,74.73
2018-07-29T05:54:44.301Z,75.38
2018-07-29T05:57:13.417Z,73.99
2018-07-29T05:59:42.519Z,74.23
2018-07-29T06:02:11.583Z,74.29
2018-07-29T06:04:41.072Z,73.94
2018-07-29T06:07:10.619Z,74.55
2018-07-29T06:09:40.499Z,73.04
2018-07-29T06:12:10.315Z,73.81
2018-07-29T06:14:41.427Z,72.28
2018-07-29T06:17:11.776Z,73.00
2018-07-29T06:19:41.610Z,73.42
2018-07-29T06:22:11.024Z,73.87
2018-07-29T06:24:40.850Z,73.37
2018-07-29T06:27:10.368Z,73.26
2018-07-29T06:29:40.693Z,73.65
2018-07-29T06:32:10.996Z,73.31
2018-07-29T06:34:40.501Z,73.06
2018-07-29T06:37:10.600Z,73.15
2018-07-29T06:39:40.665Z,73.13
2018-07-29T06:42:10.663Z,73.69
2018-07-29T06:44:40.622Z,73.71
2018-07-29T06:47:10.573Z,74.25
2018-07-29T06:49:40.749Z,74.02
2018-07-29T06:52:11.061Z,73.25
2018-07-29T06:54:40.678Z,73.92
2018-07-29T06:57:11.067Z,72.86
2018-07-29T06:59:40.739Z,73.02
2018-07-29T07:02:10.830Z,73.04
2018-07-29T07:04:40.780Z,73.33
2018-07-29T07:07:10.870Z,74.22
2018-07-29T07:09:41.020Z,73.14
2018-07-29T07:12:11.196Z,72.20
2018-07-29T07:14:41.089Z,72.19
2018-07-29T07:17:10.912Z,72.46
2018-07-29T07:42:15.701Z,72.04
2018-07-29T07:44:44.956Z,76.73
2018-07-29T07:47:14.223Z,75.75
2018-07-29T07:49:43.361Z,73.04
2018-07-29T07:52:12.801Z,71.74
2018-07-29T07:54:42.370Z,71.34
2018-07-29T07:57:11.775Z,71.23
2018-07-29T07:59:41.679Z,73.43
2018-07-29T08:02:11.528Z,73.82
2018-07-29T08:04:41.420Z,72.93
2018-07-29T08:07:11.839Z,71.08
2018-07-29T08:09:41.707Z,71.86
2018-07-29T08:12:11.588Z,70.87
2018-07-29T08:14:42.093Z,72.21
2018-07-29T08:17:11.957Z,72.12
2018-07-29T08:19:41.560Z,71.12
2018-07-29T08:22:11.765Z,71.65
2018-07-29T08:24:42.145Z,72.43
2018-07-29T08:27:11.772Z,70.81
2018-07-29T08:29:41.795Z,70.62
2018-07-29T08:32:11.877Z,70.33
2018-07-29T08:34:41.940Z,69.74
2018-07-29T08:37:12.154Z,69.56
2018-07-29T08:39:41.767Z,68.92
2018-07-29T08:42:11.849Z,68.50
2018-07-29T08:44:42.279Z,68.95
2018-07-29T08:47:12.221Z,68.37
2018-07-29T08:49:42.006Z,65.26
2018-07-29T08:52:12.354Z,64.05
2018-07-29T08:54:44.709Z,65.20
2018-07-29T08:57:13.761Z,64.89
2018-07-29T08:59:43.096Z,65.64
2018-07-29T09:02:12.605Z,63.91
2018-07-29T09:04:42.250Z,63.94
2018-07-29T09:07:12.179Z,63.43
2018-07-29T09:09:42.421Z,62.29
2018-07-29T09:12:12.401Z,60.04
2018-07-29T09:14:42.167Z,61.90
2018-07-29T09:17:12.444Z,62.01
2018-07-29T09:19:42.190Z,63.19
2018-07-29T09:22:12.792Z,62.50
2018-07-29T09:24:42.200Z,61.37
2018-07-29T09:27:12.754Z,59.94
2018-07-29T09:29:42.248Z,61.06
2018-07-29T09:32:13.201Z,59.50
2018-07-29T09:34:43.305Z,59.50
2018-07-29T09:37:12.922Z,58.66
2018-07-29T09:39:42.562Z,56.82
2018-07-29T09:42:12.724Z,57.29
2018-07-29T09:44:42.616Z,57.50
2018-07-29T09:47:13.075Z,57.06
2018-07-29T09:49:42.610Z,58.70
2018-07-29T09:52:12.825Z,57.76
2018-07-29T09:54:43.213Z,59.46
2018-07-29T09:57:12.932Z,59.96
2018-07-29T09:59:43.036Z,56.74
2018-07-29T10:02:12.779Z,59.64
2018-07-29T10:04:42.918Z,57.41
2018-07-29T10:07:13.885Z,55.83
2018-07-29T10:09:43.139Z,56.16
2018-07-29T10:12:12.878Z,56.56
2018-07-29T10:14:43.021Z,57.80
2018-07-29T10:17:12.914Z,57.25
2018-07-29T10:19:42.380Z,57.21
2018-07-29T10:22:11.794Z,57.18
2018-07-29T10:24:40.856Z,56.70
2018-07-29T10:27:10.005Z,56.35
2018-07-29T10:29:39.191Z,55.81
2018-07-29T10:32:08.372Z,55.71
2018-07-29T10:34:37.708Z,55.96
2018-07-29T10:37:06.861Z,56.65
2018-07-29T10:39:35.972Z,54.27
2018-07-29T10:42:12.062Z,53.74
2018-07-29T10:44:41.564Z,52.96
2018-07-29T10:47:10.641Z,53.00
2018-07-29T10:49:39.740Z,53.14
2018-07-29T10:52:09.257Z,54.21
2018-07-29T10:54:38.334Z,55.27
2018-07-29T10:57:07.853Z,54.13
2018-07-29T10:59:36.953Z,53.80
2018-07-29T11:02:06.560Z,52.98
2018-07-29T11:04:35.975Z,52.47
2018-07-29T11:07:05.083Z,53.93
2018-07-29T11:09:34.200Z,52.32
2018-07-29T11:12:03.313Z,52.06
2018-07-29T11:14:32.342Z,50.41
2018-07-29T11:17:01.857Z,49.88
2018-07-29T11:19:31.069Z,49.62
2018-07-29T11:22:00.545Z,51.50
2018-07-29T11:24:29.657Z,51.60
2018-07-29T11:26:58.766Z,53.03
2018-07-29T11:29:28.087Z,47.36
2018-07-29T11:31:57.191Z,50.83
2018-07-29T11:34:26.249Z,50.93
2018-07-29T11:36:55.747Z,47.52
2018-07-29T11:39:25.035Z,47.52
2018-07-29T11:41:54.382Z,49.40
2018-07-29T11:44:23.510Z,47.43
2018-07-29T11:46:52.596Z,49.41
2018-07-29T11:49:21.684Z,47.18
2018-07-29T11:51:50.894Z,49.62
2018-07-29T11:54:19.982Z,46.71
2018-07-29T11:56:49.175Z,44.98
2018-07-29T11:59:18.296Z,49.03
2018-07-29T12:01:47.355Z,47.90
2018-07-29T12:04:16.504Z,48.41
2018-07-29T12:06:45.588Z,46.43
2018-07-29T12:09:14.664Z,45.93
2018-07-29T12:11:44.603Z,45.74
2018-07-29T12:14:14.616Z,44.26
2018-07-29T12:16:44.440Z,45.62
2018-07-29T12:19:13.519Z,46.81
2018-07-29T12:21:42.627Z,46.19
2018-07-29T12:24:11.689Z,44.24
2018-07-29T12:26:40.802Z,45.20
2018-07-29T12:29:09.932Z,44.80
2018-07-29T12:31:39.090Z,43.93
2018-07-29T12:34:08.208Z,43.56
2018-07-29T12:36:37.324Z,44.37
2018-07-29T12:39:07.998Z,43.61
2018-07-29T12:41:37.266Z,42.28
2018-07-29T12:44:06.429Z,43.33
2018-07-29T12:46:35.740Z,44.59
2018-07-29T12:49:04.853Z,44.71
2018-07-29T12:51:33.841Z,43.01
2018-07-29T12:54:02.976Z,41.52
2018-07-29T12:56:32.050Z,41.84
2018-07-29T12:59:01.198Z,42.20
2018-07-29T13:01:30.323Z,42.67
2018-07-29T13:03:59.476Z,43.32
2018-07-29T13:06:28.599Z,43.09
2018-07-29T13:08:57.689Z,43.11
2018-07-29T13:11:26.814Z,41.96
2018-07-29T13:13:55.890Z,43.55
2018-07-29T13:16:24.966Z,42.47
2018-07-29T13:18:54.069Z,42.05
2018-07-29T13:21:23.135Z,42.38
2018-07-29T13:23:52.182Z,41.26
2018-07-29T13:26:21.376Z,41.21
2018-07-29T13:28:50.594Z,42.24
2018-07-29T13:31:19.680Z,41.87
2018-07-29T13:33:48.744Z,41.96
2018-07-29T13:36:17.837Z,42.78
2018-07-29T13:38:46.931Z,40.54
2018-07-29T13:41:16.014Z,41.60
2018-07-29T13:43:45.400Z,41.97
2018-07-29T13:46:46.106Z,41.63
2018-07-29T13:49:15.396Z,42.12
2018-07-29T13:51:45.444Z,41.02
2018-07-29T13:54:15.616Z,42.27
2018-07-29T13:56:45.499Z,43.19
2018-07-29T13:59:15.573Z,40.59
2018-07-29T14:01:45.573Z,42.86
2018-07-29T14:04:15.824Z,42.31
2018-07-29T14:06:45.603Z,40.31
2018-07-29T14:09:15.657Z,41.48
2018-07-29T14:11:45.758Z,40.40
2018-07-29T14:14:15.747Z,39.79
2018-07-29T14:16:45.638Z,38.64
2018-07-29T14:19:15.706Z,39.40
2018-07-29T14:21:45.696Z,39.43
2018-07-29T14:24:15.830Z,37.96
2018-07-29T14:39:40.248Z,40.29
2018-07-29T14:42:09.535Z,33.23
2018-07-29T14:44:39.157Z,32.50
2018-07-29T14:47:08.341Z,33.29
2018-07-29T14:49:37.463Z,33.61
2018-07-29T14:52:06.925Z,34.86
2018-07-29T14:54:36.029Z,34.92
2018-07-29T14:57:05.098Z,36.42
2018-07-29T14:59:34.167Z,31.18
2018-07-29T15:02:03.431Z,32.30
2018-07-29T15:04:32.566Z,32.10
2018-07-29T15:07:01.619Z,30.31
2018-07-29T15:09:30.869Z,33.24
2018-07-29T15:12:00.044Z,31.39
2018-07-29T15:14:29.114Z,31.06
2018-07-29T15:16:58.243Z,29.93
2018-07-29T15:19:27.312Z,29.04
2018-07-29T15:21:56.403Z,31.70
2018-07-29T15:24:25.472Z,29.64
2018-07-29T15:26:54.544Z,30.86
2018-07-29T15:29:23.574Z,29.07
2018-07-29T15:31:52.697Z,32.43
2018-07-29T15:34:21.796Z,31.97
2018-07-29T15:36:50.841Z,29.73
2018-07-29T15:39:19.920Z,31.34
2018-07-29T15:41:48.978Z,31.17
2018-07-29T15:44:18.131Z,30.36
2018-07-29T15:46:47.247Z,31.55
2018-07-29T15:49:16.636Z,29.83
2018-07-29T15:51:46.583Z,30.70
2018-07-29T15:54:16.697Z,31.23
2018-07-29T15:56:46.629Z,32.13
2018-07-29T15:59:16.727Z,30.32
2018-07-29T16:01:46.663Z,30.68
2018-07-29T16:04:16.626Z,31.14
2018-07-29T16:06:46.682Z,30.47
2018-07-29T16:09:16.782Z,31.29
2018-07-29T16:11:46.740Z,29.55
2018-07-29T16:14:16.752Z,31.19
2018-07-29T16:16:46.811Z,32.40
2018-07-29T16:19:16.955Z,30.10
2018-07-29T16:21:46.921Z,29.96
2018-07-29T16:24:16.773Z,30.42
2018-07-29T16:26:45.856Z,31.31
2018-07-29T16:29:14.953Z,32.54
2018-07-29T16:31:44.050Z,33.26
2018-07-29T16:34:14.101Z,33.27
2018-07-29T16:36:43.148Z,35.22
2018-07-29T16:39:13.449Z,35.03
2018-07-29T16:54:36.947Z,33.43
2018-07-29T16:57:06.047Z,36.80
2018-07-29T16:59:35.151Z,37.16
2018-07-29T17:02:04.243Z,36.97
2018-07-29T17:04:33.284Z,37.19
2018-07-29T17:07:02.674Z,37.54
2018-07-29T17:09:31.818Z,37.84
2018-07-29T17:12:00.875Z,38.52
2018-07-29T17:14:30.069Z,36.77
2018-07-29T17:16:59.261Z,38.31
2018-07-29T17:19:28.344Z,38.29
2018-07-29T17:21:57.427Z,39.47
2018-07-29T17:24:26.563Z,39.03
2018-07-29T17:26:55.661Z,40.31
2018-07-29T17:29:24.756Z,40.38
2018-07-29T17:31:53.844Z,40.58
2018-07-29T17:34:22.994Z,40.74
2018-07-29T17:36:52.094Z,40.57
2018-07-29T17:39:21.198Z,41.13
2018-07-29T17:41:50.306Z,40.46
2018-07-29T17:44:19.396Z,41.74
2018-07-29T17:46:48.447Z,42.06
2018-07-29T17:49:17.677Z,43.27
2018-07-29T17:51:46.780Z,42.71
2018-07-29T17:54:16.116Z,43.50
2018-07-29T17:56:45.252Z,42.65
2018-07-29T17:59:14.328Z,42.96
2018-07-29T18:01:43.428Z,44.35
2018-07-29T18:04:12.583Z,44.81
2018-07-29T18:06:41.856Z,44.03
2018-07-29T18:09:11.765Z,43.88
2018-07-29T18:11:41.984Z,43.78
2018-07-29T18:14:12.670Z,44.54
2018-07-29T18:16:42.163Z,44.33
2018-07-29T18:19:18.027Z,43.92
2018-07-29T18:21:48.108Z,46.02
2018-07-29T18:24:18.439Z,45.83
2018-07-29T18:26:48.154Z,48.53
2018-07-29T18:29:18.260Z,47.90
2018-07-29T18:31:48.307Z,48.55
2018-07-29T18:34:18.422Z,48.84
2018-07-29T18:36:48.414Z,50.17
2018-07-29T18:39:18.375Z,53.81
2018-07-29T18:41:48.241Z,54.86
2018-07-29T18:44:18.352Z,55.53
2018-07-29T18:46:48.480Z,57.47
2018-07-29T18:49:18.747Z,58.16
2018-07-29T18:51:48.711Z,59.64
2018-07-29T18:54:18.606Z,58.84
2018-07-29T18:56:48.882Z,61.13
2018-07-29T18:59:18.909Z,59.21
2018-07-29T19:01:49.316Z,61.15
2018-07-29T19:04:18.701Z,59.23
2018-07-29T19:06:48.959Z,59.24
2018-07-29T19:09:18.929Z,58.75
2018-07-29T19:11:48.726Z,59.65
2018-07-29T19:14:19.010Z,59.50
2018-07-29T19:16:49.042Z,59.18
2018-07-29T19:19:19.027Z,61.67
2018-07-29T19:21:48.752Z,59.46
2018-07-29T19:24:18.886Z,59.66
2018-07-29T19:26:48.901Z,60.46
2018-07-29T19:29:19.345Z,60.22
2018-07-29T19:31:49.003Z,59.98
2018-07-29T19:34:19.251Z,60.14
2018-07-29T19:36:49.245Z,60.85
2018-07-29T19:39:18.918Z,62.08
2018-07-29T19:41:48.267Z,61.77
2018-07-29T19:44:17.670Z,60.98
2018-07-29T19:46:46.848Z,62.63
2018-07-29T19:49:15.933Z,62.24
2018-07-29T19:51:45.382Z,62.62
2018-07-29T19:54:14.465Z,63.55
2018-07-29T19:56:43.635Z,63.98
2018-07-29T19:59:13.187Z,65.50
2018-07-29T20:01:42.659Z,63.66
2018-07-29T20:04:12.079Z,61.89
2018-07-29T20:06:41.312Z,62.89
2018-07-29T20:09:11.622Z,62.18
2018-07-29T20:11:41.361Z,62.00
2018-07-29T20:14:10.555Z,62.33
2018-07-29T20:16:39.781Z,62.27
2018-07-29T20:19:09.222Z,62.69
2018-07-29T20:21:38.332Z,64.19
2018-07-29T20:24:07.722Z,63.42
2018-07-29T20:26:36.881Z,63.46
2018-07-29T20:29:05.990Z,64.76
2018-07-29T20:31:35.509Z,65.70
2018-07-29T20:34:04.687Z,66.23
2018-07-29T20:36:33.707Z,67.16
2018-07-29T20:39:03.393Z,66.99
2018-07-29T20:41:32.699Z,65.00
2018-07-29T20:44:01.789Z,64.19
2018-07-29T20:46:30.891Z,65.08
2018-07-29T20:49:00.341Z,64.94
2018-07-29T20:51:29.978Z,65.88
2018-07-29T20:53:59.439Z,65.46
2018-07-29T20:56:28.517Z,65.68
2018-07-29T20:58:57.614Z,65.08
2018-07-29T21:01:26.672Z,66.36
2018-07-29T21:03:55.834Z,66.66
2018-07-29T21:06:25.320Z,67.83
2018-07-29T21:08:54.834Z,67.32
2018-07-29T21:11:23.935Z,67.89
2018-07-29T21:13:53.045Z,67.21
2018-07-29T21:16:22.141Z,67.27
2018-07-29T21:18:51.607Z,66.90
2018-07-29T21:21:20.777Z,67.09
2018-07-29T21:23:50.625Z,66.94
2018-07-29T21:26:50.863Z,67.56
2018-07-29T21:29:20.230Z,68.54
2018-07-29T21:44:44.529Z,68.94
2018-07-29T21:47:14.009Z,70.86
2018-07-29T21:49:43.448Z,71.04
2018-07-29T21:52:12.575Z,71.87
2018-07-29T21:54:41.667Z,71.28
2018-07-29T21:57:10.767Z,72.37
2018-07-29T21:59:39.850Z,72.30
2018-07-29T22:02:09.446Z,71.32
2018-07-29T22:04:38.540Z,72.45
2018-07-29T22:07:07.855Z,72.63
2018-07-29T22:09:37.316Z,72.37
2018-07-29T22:12:06.640Z,71.95
2018-07-29T22:14:35.708Z,72.94
2018-07-29T22:17:05.653Z,73.09
2018-07-29T22:19:34.729Z,72.20
2018-07-29T22:22:03.791Z,71.36
2018-07-29T22:24:33.281Z,72.45
2018-07-29T22:27:02.433Z,72.15
2018-07-29T22:29:32.764Z,73.29
2018-07-29T22:32:04.140Z,73.83
2018-07-29T22:34:33.565Z,73.74
2018-07-29T22:37:02.840Z,74.48
2018-07-29T22:39:31.913Z,74.32
2018-07-29T22:42:01.061Z,73.96
2018-07-29T22:44:30.778Z,74.53
2018-07-29T22:47:00.052Z,75.30
2018-07-29T22:49:29.156Z,74.48
2018-07-29T22:51:58.237Z,75.08
2018-07-29T22:54:27.485Z,75.30
2018-07-29T22:56:56.862Z,74.52
2018-07-29T22:59:25.958Z,75.27
2018-07-29T23:01:55.093Z,75.56
2018-07-29T23:04:24.462Z,75.87
2018-07-29T23:06:53.528Z,75.09
2018-07-29T23:09:22.735Z,74.50
2018-07-29T23:11:52.031Z,74.36
2018-07-29T23:14:21.338Z,75.27
2018-07-29T23:16:51.138Z,75.50
2018-07-29T23:19:21.224Z,75.75
2018-07-29T23:21:51.283Z,75.54
2018-07-29T23:24:21.094Z,75.79
2018-07-29T23:26:51.159Z,75.65
2018-07-29T23:29:21.612Z,76.03
2018-07-29T23:31:51.216Z,76.27
2018-07-29T23:34:21.465Z,76.54
2018-07-29T23:36:51.327Z,76.74
2018-07-29T23:39:21.693Z,75.49
2018-07-29T23:41:51.342Z,76.07
2018-07-29T23:44:21.594Z,76.75
2018-07-29T23:46:51.910Z,76.79
2018-07-29T23:49:21.760Z,76.27
2018-07-29T23:51:51.761Z,77.68
2018-07-29T23:54:21.715Z,77.96
2018-07-29T23:56:51.610Z,78.62
2018-07-29T23:59:21.584Z,78.57
